createdAt,value
2023-01-29T00:02:22.726Z,3.71
2023-01-29T00:05:28.186Z,4.03
2023-01-29T00:08:31.106Z,4.06
2023-01-29T00:11:33.909Z,3.86
2023-01-29T00:14:37.846Z,3.57
2023-01-29T00:17:40.456Z,3.79
2023-01-29T00:20:44.480Z,3.68
2023-01-29T00:23:47.352Z,3.65
2023-01-29T00:26:50.010Z,3.88
2023-01-29T00:30:07.912Z,3.69
2023-01-29T00:33:11.813Z,3.81
2023-01-29T00:36:16.153Z,3.76
2023-01-29T00:39:31.355Z,3.94
2023-01-29T00:42:53.712Z,4.10
2023-01-29T00:45:57.647Z,3.74
2023-01-29T00:49:00.977Z,3.87
2023-01-29T00:52:21.094Z,3.61
2023-01-29T00:55:23.838Z,3.65
2023-01-29T00:58:34.463Z,3.51
2023-01-29T01:01:56.129Z,3.57
2023-01-29T01:04:58.819Z,3.60
2023-01-29T01:08:01.393Z,3.59
2023-01-29T01:11:05.650Z,3.49
2023-01-29T01:14:08.266Z,3.77
2023-01-29T01:17:12.221Z,3.74
2023-01-29T01:20:15.298Z,3.67
2023-01-29T01:23:19.542Z,3.85
2023-01-29T01:26:22.314Z,3.79
2023-01-29T01:29:24.985Z,3.95
2023-01-29T01:32:28.929Z,4.16
2023-01-29T01:35:31.672Z,3.88
2023-01-29T01:38:34.248Z,3.83
2023-01-29T01:41:36.933Z,4.15
2023-01-29T01:44:54.889Z,3.94
2023-01-29T01:48:03.492Z,3.83
2023-01-29T01:51:06.959Z,4.12
2023-01-29T01:54:13.957Z,4.00
2023-01-29T01:57:25.204Z,4.00
2023-01-29T02:00:28.067Z,4.13
2023-01-29T02:03:51.883Z,4.11
2023-01-29T02:07:14.159Z,4.06
2023-01-29T02:10:18.287Z,3.84
2023-01-29T02:13:21.277Z,3.85
2023-01-29T02:16:24.787Z,3.74
2023-01-29T02:19:40.240Z,3.84
2023-01-29T02:23:15.372Z,3.63
2023-01-29T02:26:35.297Z,3.68
2023-01-29T02:29:53.608Z,3.78
2023-01-29T02:33:01.829Z,3.96
2023-01-29T02:36:15.249Z,3.84
2023-01-29T02:39:29.338Z,3.89
2023-01-29T02:42:37.421Z,3.84
2023-01-29T02:45:47.703Z,3.82
2023-01-29T02:48:56.764Z,3.80
2023-01-29T02:52:04.213Z,4.06
2023-01-29T02:55:13.550Z,4.22
2023-01-29T02:58:21.853Z,3.98
2023-01-29T03:01:31.636Z,4.00
2023-01-29T03:04:42.512Z,4.13
2023-01-29T03:07:52.031Z,4.05
2023-01-29T03:11:00.195Z,4.07
2023-01-29T03:14:07.393Z,4.03
2023-01-29T03:17:11.738Z,4.16
2023-01-29T03:20:19.744Z,3.95
2023-01-29T03:23:27.140Z,4.19
2023-01-29T03:26:47.423Z,3.98
2023-01-29T03:30:11.896Z,3.99
2023-01-29T03:33:18.814Z,4.16
2023-01-29T03:36:28.904Z,3.96
2023-01-29T03:39:31.643Z,3.92
2023-01-29T03:42:50.720Z,4.09
2023-01-29T03:46:01.255Z,4.16
2023-01-29T03:49:12.468Z,3.89
2023-01-29T03:52:20.356Z,3.99
2023-01-29T03:55:31.105Z,3.90
2023-01-29T03:58:40.975Z,3.94
2023-01-29T04:01:48.610Z,4.09
2023-01-29T04:04:55.887Z,3.89
2023-01-29T04:08:04.244Z,3.68
2023-01-29T04:11:13.515Z,3.56
2023-01-29T04:14:16.691Z,4.02
2023-01-29T04:17:23.770Z,3.99
2023-01-29T04:20:27.923Z,4.09
2023-01-29T04:23:30.503Z,4.17
2023-01-29T04:26:50.477Z,4.13
2023-01-29T04:30:03.744Z,4.38
2023-01-29T04:33:13.293Z,4.32
2023-01-29T04:36:29.463Z,4.03
2023-01-29T04:39:41.318Z,3.91
2023-01-29T04:42:51.115Z,4.13
2023-01-29T04:46:07.818Z,4.24
2023-01-29T04:49:19.634Z,4.11
2023-01-29T04:52:32.976Z,4.13
2023-01-29T04:55:42.341Z,4.06
2023-01-29T04:58:49.835Z,4.04
2023-01-29T05:01:53.163Z,4.10
2023-01-29T05:04:58.445Z,3.91
2023-01-29T05:08:03.785Z,3.91
2023-01-29T05:11:06.998Z,4.18
2023-01-29T05:14:14.696Z,3.81
2023-01-29T05:17:21.045Z,3.83
2023-01-29T05:20:23.878Z,3.86
2023-01-29T05:23:27.894Z,4.21
2023-01-29T05:26:48.227Z,3.94
2023-01-29T05:29:50.822Z,3.71
2023-01-29T05:32:53.570Z,3.98
2023-01-29T05:35:56.855Z,4.23
2023-01-29T05:39:00.773Z,4.24
2023-01-29T05:42:03.565Z,4.10
2023-01-29T05:45:07.221Z,3.92
2023-01-29T05:48:09.841Z,4.13
2023-01-29T05:51:12.455Z,3.94
2023-01-29T05:54:16.573Z,4.17
2023-01-29T05:57:19.254Z,4.16
2023-01-29T06:00:22.411Z,4.12
2023-01-29T06:03:24.998Z,4.05
2023-01-29T06:06:27.602Z,4.18
2023-01-29T06:09:31.687Z,4.32
2023-01-29T06:12:34.331Z,4.25
2023-01-29T06:15:36.911Z,4.24
2023-01-29T06:18:40.172Z,4.09
2023-01-29T06:21:42.756Z,4.16
2023-01-29T06:24:46.707Z,3.90
2023-01-29T06:27:51.666Z,3.91
2023-01-29T06:30:54.330Z,4.09
2023-01-29T06:33:56.935Z,4.14
2023-01-29T06:36:59.536Z,3.88
2023-01-29T06:40:03.557Z,4.14
2023-01-29T06:43:06.159Z,4.26
2023-01-29T06:46:09.401Z,3.96
2023-01-29T06:49:12.063Z,3.64
2023-01-29T06:52:14.637Z,3.55
2023-01-29T06:55:18.609Z,3.68
2023-01-29T06:58:21.959Z,3.52
2023-01-29T07:01:35.581Z,3.31
2023-01-29T07:04:39.187Z,3.12
2023-01-29T07:07:41.824Z,3.21
2023-01-29T07:10:45.848Z,3.25
2023-01-29T07:13:48.435Z,3.38
2023-01-29T07:16:51.042Z,3.23
2023-01-29T07:19:53.617Z,3.13
2023-01-29T07:22:58.048Z,3.31
2023-01-29T07:26:04.091Z,3.11
2023-01-29T07:29:06.697Z,3.38
2023-01-29T07:32:09.440Z,3.15
2023-01-29T07:35:12.141Z,3.37
2023-01-29T07:38:14.755Z,3.41
2023-01-29T07:41:18.744Z,2.96
2023-01-29T07:44:21.305Z,3.00
2023-01-29T07:47:23.883Z,2.83
2023-01-29T07:50:28.165Z,3.09
2023-01-29T07:53:31.733Z,3.07
2023-01-29T07:56:35.671Z,3.09
2023-01-29T07:59:38.247Z,3.03
2023-01-29T08:02:40.986Z,3.09
2023-01-29T08:05:44.042Z,2.90
2023-01-29T08:08:46.717Z,2.88
2023-01-29T08:11:50.646Z,2.76
2023-01-29T08:14:53.250Z,2.86
2023-01-29T08:17:58.025Z,2.86
2023-01-29T08:21:01.853Z,2.88
2023-01-29T08:24:04.892Z,2.96
2023-01-29T08:27:08.883Z,2.81
2023-01-29T08:30:12.917Z,3.11
2023-01-29T08:33:17.566Z,3.19
2023-01-29T08:36:20.315Z,3.31
2023-01-29T08:39:22.909Z,3.26
2023-01-29T08:42:26.979Z,3.55
2023-01-29T08:45:30.060Z,3.51
2023-01-29T08:48:33.223Z,3.50
2023-01-29T08:51:35.791Z,3.22
2023-01-29T08:54:38.403Z,3.29
2023-01-29T08:57:42.340Z,3.25
2023-01-29T09:00:45.049Z,3.45
2023-01-29T09:03:47.625Z,3.52
2023-01-29T09:06:50.226Z,3.51
2023-01-29T09:09:52.817Z,3.38
2023-01-29T09:12:56.794Z,3.43
2023-01-29T09:16:01.085Z,3.59
2023-01-29T09:19:03.653Z,3.58
2023-01-29T09:22:06.310Z,3.83
2023-01-29T09:25:10.761Z,3.60
2023-01-29T09:28:14.727Z,3.64
2023-01-29T09:31:17.564Z,3.56
2023-01-29T09:34:20.312Z,3.63
2023-01-29T09:37:23.912Z,3.62
2023-01-29T09:40:28.039Z,3.53
2023-01-29T09:43:43.885Z,3.67
2023-01-29T09:46:51.334Z,3.80
2023-01-29T09:49:58.788Z,3.70
2023-01-29T09:53:09.690Z,3.83
2023-01-29T09:56:15.004Z,4.00
2023-01-29T09:59:22.333Z,4.13
2023-01-29T10:02:44.002Z,3.94
2023-01-29T10:06:00.217Z,3.85
2023-01-29T10:09:36.107Z,3.91
2023-01-29T10:12:54.536Z,3.85
2023-01-29T10:16:13.799Z,3.83
2023-01-29T10:19:36.324Z,3.72
2023-01-29T10:22:51.779Z,3.82
2023-01-29T10:25:55.406Z,3.90
2023-01-29T10:29:00.122Z,3.92
2023-01-29T10:32:05.914Z,3.92
2023-01-29T10:35:21.416Z,3.75
2023-01-29T10:38:36.173Z,3.98
2023-01-29T10:41:57.222Z,4.01
2023-01-29T10:45:19.575Z,4.13
2023-01-29T10:48:45.615Z,3.99
2023-01-29T10:52:03.264Z,3.96
2023-01-29T10:55:21.807Z,4.00
2023-01-29T10:58:32.664Z,4.19
2023-01-29T11:01:35.338Z,4.19
2023-01-29T11:04:39.699Z,4.31
2023-01-29T11:07:42.402Z,4.26
2023-01-29T11:10:55.291Z,4.27
2023-01-29T11:14:01.200Z,4.26
2023-01-29T11:17:03.862Z,4.15
2023-01-29T11:20:27.529Z,4.01
2023-01-29T11:23:32.454Z,3.94
2023-01-29T11:26:39.016Z,4.08
2023-01-29T11:29:44.604Z,4.08
2023-01-29T11:32:52.253Z,4.05
2023-01-29T11:35:57.622Z,4.11
2023-01-29T11:39:13.112Z,4.26
2023-01-29T11:42:21.628Z,4.11
2023-01-29T11:45:29.829Z,4.15
2023-01-29T11:48:43.010Z,4.23
2023-01-29T11:51:53.956Z,4.01
2023-01-29T11:55:00.715Z,4.23
2023-01-29T11:58:07.474Z,4.18
2023-01-29T12:01:11.567Z,4.24
2023-01-29T12:04:19.670Z,4.24
2023-01-29T12:07:23.970Z,4.08
2023-01-29T12:10:36.419Z,4.14
2023-01-29T12:13:40.782Z,4.14
2023-01-29T12:16:52.926Z,4.36
2023-01-29T12:20:00.112Z,4.33
2023-01-29T12:23:12.279Z,4.45
2023-01-29T12:26:17.831Z,4.50
2023-01-29T12:29:32.263Z,4.52
2023-01-29T12:32:42.032Z,4.34
2023-01-29T12:35:48.819Z,4.25
2023-01-29T12:38:53.005Z,4.16
2023-01-29T12:42:00.586Z,4.24
2023-01-29T12:45:08.922Z,4.50
2023-01-29T12:48:15.360Z,4.43
2023-01-29T12:51:21.184Z,4.27
2023-01-29T12:54:33.362Z,4.32
2023-01-29T12:57:42.570Z,4.43
2023-01-29T13:00:47.472Z,4.28
2023-01-29T13:03:54.553Z,4.24
2023-01-29T13:07:06.076Z,4.37
2023-01-29T13:10:15.067Z,4.24
2023-01-29T13:13:25.896Z,4.03
2023-01-29T13:16:34.421Z,4.09
2023-01-29T13:19:41.874Z,3.91
2023-01-29T13:22:45.143Z,3.88
2023-01-29T13:25:51.552Z,4.11
2023-01-29T13:28:54.629Z,4.16
2023-01-29T13:32:00.670Z,4.09
2023-01-29T13:35:07.353Z,4.11
2023-01-29T13:38:25.811Z,4.42
2023-01-29T13:41:39.836Z,4.22
2023-01-29T13:44:42.734Z,4.22
2023-01-29T13:47:46.239Z,3.97
2023-01-29T13:50:49.450Z,3.97
2023-01-29T13:53:58.275Z,4.11
2023-01-29T13:57:02.882Z,4.23
2023-01-29T14:00:06.483Z,4.19
2023-01-29T14:04:04.240Z,4.34
2023-01-29T14:07:49.762Z,4.21
2023-01-29T14:11:35.703Z,4.31
2023-01-29T14:15:22.720Z,4.10
2023-01-29T14:18:27.185Z,4.13
2023-01-29T14:21:31.741Z,4.03
2023-01-29T14:24:35.732Z,4.04
2023-01-29T14:27:38.590Z,4.10
2023-01-29T14:30:46.593Z,4.20
2023-01-29T14:33:49.882Z,3.98
2023-01-29T14:36:56.238Z,3.89
2023-01-29T14:40:08.955Z,3.98
2023-01-29T14:43:19.930Z,3.88
2023-01-29T14:46:45.290Z,3.99
2023-01-29T14:49:55.568Z,4.05
2023-01-29T14:53:02.788Z,4.01
2023-01-29T14:56:15.194Z,3.79
2023-01-29T14:59:21.791Z,4.17
2023-01-29T15:02:33.163Z,3.92
2023-01-29T15:05:38.874Z,3.88
2023-01-29T15:08:46.610Z,3.96
2023-01-29T15:11:57.935Z,3.99
2023-01-29T15:15:08.858Z,4.00
2023-01-29T15:18:16.701Z,3.65
2023-01-29T15:21:20.674Z,3.82
2023-01-29T15:24:23.260Z,3.73
2023-01-29T15:27:27.180Z,3.88
2023-01-29T15:30:34.027Z,3.79
2023-01-29T15:33:38.507Z,3.79
2023-01-29T15:36:41.262Z,4.06
2023-01-29T15:39:45.036Z,3.56
2023-01-29T15:42:49.243Z,3.57
2023-01-29T15:45:53.166Z,3.40
2023-01-29T15:48:58.097Z,3.55
2023-01-29T15:52:04.409Z,3.44
2023-01-29T15:55:08.722Z,3.54
2023-01-29T15:58:18.281Z,3.52
2023-01-29T16:01:21.547Z,3.51
2023-01-29T16:04:28.789Z,3.48
2023-01-29T16:07:32.490Z,3.58
2023-01-29T16:10:35.302Z,3.54
2023-01-29T16:13:44.096Z,3.38
2023-01-29T16:16:48.501Z,3.47
2023-01-29T16:19:56.934Z,3.69
2023-01-29T16:23:00.617Z,3.60
2023-01-29T16:26:06.601Z,3.44
2023-01-29T16:29:12.905Z,3.50
2023-01-29T16:32:16.703Z,3.55
2023-01-29T16:35:19.893Z,3.61
2023-01-29T16:38:30.517Z,3.78
2023-01-29T16:41:35.834Z,3.82
2023-01-29T16:44:40.893Z,3.88
2023-01-29T16:47:43.635Z,3.69
2023-01-29T16:50:54.913Z,3.65
2023-01-29T16:54:09.179Z,3.66
2023-01-29T16:57:17.123Z,3.92
2023-01-29T17:00:25.347Z,3.61
2023-01-29T17:03:31.249Z,3.59
2023-01-29T17:06:35.001Z,3.72
2023-01-29T17:09:38.804Z,3.69
2023-01-29T17:12:41.477Z,3.59
2023-01-29T17:15:48.427Z,3.48
2023-01-29T17:18:51.114Z,3.69
2023-01-29T17:21:54.013Z,3.82
2023-01-29T17:24:56.603Z,3.56
2023-01-29T17:28:02.152Z,3.51
2023-01-29T17:31:07.446Z,3.79
2023-01-29T17:34:12.690Z,3.51
2023-01-29T17:37:16.343Z,3.66
2023-01-29T17:40:34.580Z,3.60
2023-01-29T17:43:37.174Z,3.73
2023-01-29T17:46:41.112Z,3.71
2023-01-29T17:49:44.019Z,3.68
2023-01-29T17:52:46.654Z,3.69
2023-01-29T17:55:49.627Z,3.41
2023-01-29T17:58:52.192Z,3.67
2023-01-29T18:01:56.587Z,3.62
2023-01-29T18:04:59.188Z,3.55
2023-01-29T18:08:02.240Z,3.26
2023-01-29T18:11:05.128Z,3.21
2023-01-29T18:14:13.583Z,3.18
2023-01-29T18:17:22.221Z,3.35
2023-01-29T18:20:26.399Z,3.36
2023-01-29T18:23:31.094Z,3.22
2023-01-29T18:26:33.877Z,3.33
2023-01-29T18:29:36.707Z,3.55
2023-01-29T18:32:40.698Z,3.43
2023-01-29T18:35:44.549Z,3.20
2023-01-29T18:38:47.135Z,3.37
2023-01-29T18:41:49.708Z,3.51
2023-01-29T18:44:52.306Z,3.46
2023-01-29T18:47:56.395Z,3.15
2023-01-29T18:50:59.499Z,3.16
2023-01-29T18:54:02.080Z,3.05
2023-01-29T18:57:13.004Z,3.17
2023-01-29T19:00:18.298Z,2.97
2023-01-29T19:03:23.097Z,3.17
2023-01-29T19:06:25.699Z,3.20
2023-01-29T19:09:28.488Z,3.17
2023-01-29T19:12:31.119Z,3.13
2023-01-29T19:15:33.838Z,3.05
2023-01-29T19:18:38.649Z,2.98
2023-01-29T19:21:41.232Z,3.19
2023-01-29T19:24:43.828Z,3.15
2023-01-29T19:27:46.563Z,3.06
2023-01-29T19:30:49.206Z,3.31
2023-01-29T19:33:53.163Z,3.16
2023-01-29T19:36:55.758Z,3.10
2023-01-29T19:39:58.380Z,3.12
2023-01-29T19:43:00.985Z,3.16
2023-01-29T19:46:03.547Z,3.22
2023-01-29T19:49:07.771Z,3.20
2023-01-29T19:52:14.784Z,3.27
2023-01-29T19:55:17.860Z,3.35
2023-01-29T19:58:20.763Z,3.26
2023-01-29T20:01:24.598Z,3.18
2023-01-29T20:04:29.154Z,3.10
2023-01-29T20:07:31.737Z,3.22
2023-01-29T20:10:34.367Z,3.30
2023-01-29T20:13:36.987Z,3.21
2023-01-29T20:16:39.673Z,3.19
2023-01-29T20:19:43.954Z,3.25
2023-01-29T20:22:46.832Z,3.17
2023-01-29T20:25:49.533Z,3.17
2023-01-29T20:28:52.155Z,3.23
2023-01-29T20:31:54.732Z,3.26
2023-01-29T20:34:58.666Z,3.19
2023-01-29T20:38:01.663Z,3.20
2023-01-29T20:41:05.605Z,3.37
2023-01-29T20:44:08.653Z,3.33
2023-01-29T20:47:11.871Z,3.42
2023-01-29T20:50:18.782Z,3.23
2023-01-29T20:53:21.827Z,3.41
2023-01-29T20:56:36.836Z,3.18
2023-01-29T20:59:45.141Z,3.21
2023-01-29T21:02:47.721Z,3.15
2023-01-29T21:05:52.157Z,3.20
2023-01-29T21:08:54.748Z,3.08
2023-01-29T21:11:57.400Z,3.23
2023-01-29T21:14:59.992Z,3.24
2023-01-29T21:18:04.439Z,3.32
2023-01-29T21:21:08.430Z,3.44
2023-01-29T21:24:12.856Z,3.37
2023-01-29T21:27:15.482Z,3.41
2023-01-29T21:30:19.339Z,3.37
2023-01-29T21:33:22.888Z,3.50
2023-01-29T21:36:26.888Z,3.56
2023-01-29T21:39:29.466Z,3.64
2023-01-29T21:42:49.413Z,3.46
2023-01-29T21:45:56.772Z,3.43
2023-01-29T21:48:59.459Z,3.47
2023-01-29T21:52:03.387Z,3.64
2023-01-29T21:55:06.817Z,3.43
2023-01-29T21:58:09.424Z,3.52
2023-01-29T22:01:35.845Z,3.59
2023-01-29T22:04:35.388Z,3.51
2023-01-29T22:07:39.574Z,3.56
2023-01-29T22:10:42.776Z,3.59
2023-01-29T22:13:45.525Z,3.77
2023-01-29T22:16:48.241Z,3.65
2023-01-29T22:19:50.859Z,3.68
2023-01-29T22:22:54.788Z,3.66
2023-01-29T22:26:03.214Z,3.77
2023-01-29T22:29:05.845Z,3.69
2023-01-29T22:32:09.458Z,3.67
2023-01-29T22:35:12.039Z,3.87
2023-01-29T22:38:15.973Z,3.72
2023-01-29T22:41:18.569Z,3.66
2023-01-29T22:44:21.157Z,3.64
2023-01-29T22:47:23.773Z,3.57
2023-01-29T22:50:26.387Z,3.62
2023-01-29T22:53:30.349Z,3.70
2023-01-29T22:56:32.911Z,3.66
2023-01-29T22:59:35.516Z,3.66
2023-01-29T23:02:38.468Z,3.62
2023-01-29T23:05:41.029Z,3.67
2023-01-29T23:08:45.335Z,3.73
2023-01-29T23:11:47.953Z,3.79
2023-01-29T23:14:50.526Z,3.70
2023-01-29T23:17:53.141Z,3.63
2023-01-29T23:20:57.794Z,3.65
2023-01-29T23:24:01.774Z,3.59
2023-01-29T23:27:16.345Z,3.42
2023-01-29T23:30:19.520Z,3.55
2023-01-29T23:33:22.402Z,3.41
2023-01-29T23:36:24.998Z,3.44
2023-01-29T23:39:28.929Z,3.46
2023-01-29T23:42:31.505Z,3.44
2023-01-29T23:45:34.093Z,3.52
2023-01-29T23:48:36.736Z,3.63
2023-01-29T23:51:39.453Z,3.68
2023-01-29T23:54:43.412Z,3.55
2023-01-29T23:57:46.043Z,3.58
